Time;durP1;ratioP1;P1;durP2;ratioP2;P2;SDS_P1;SDS_P2;PMS_P1;PMS_P2;Temp;Humidity;BMP_temperature;BMP_pressure;BME280_temperature;BME280_humidity;BME280_pressure;Samples;Min_cycle;Max_cycle;Signal;HPM_P1;HPM_P2
2022/03/14 00:01:39;;;;;;;28.25;14.15;;;;;;;-1.28;62.00;101810.82;1742300;82;25643;-71
2022/03/14 00:04:06;;;;;;;27.27;13.68;;;;;;;-1.29;62.06;101819.78;1742111;82;26129;-71
2022/03/14 00:06:35;;;;;;;30.15;14.25;;;;;;;-1.32;61.98;101819.68;1742134;82;25441;-71
2022/03/14 00:09:06;;;;;;;28.70;13.10;;;;;;;-1.35;61.98;101813.42;1741956;81;27526;-71
2022/03/14 00:11:30;;;;;;;27.73;13.58;;;;;;;-1.38;61.97;101813.80;1741591;82;25775;-71
2022/03/14 00:13:57;;;;;;;27.55;14.03;;;;;;;-1.42;62.00;101808.58;1741980;82;25637;-71
2022/03/14 00:16:25;;;;;;;25.32;13.35;;;;;;;-1.64;62.64;101779.91;1742223;82;25919;-71
2022/03/14 00:18:55;;;;;;;29.23;15.53;;;;;;;-1.48;62.86;101802.69;1742212;81;25748;-71
2022/03/14 00:21:23;;;;;;;;;;;;;;;-1.51;62.31;101807.38;1744681;82;27343;-71
2022/03/14 00:23:52;;;;;;;25.77;11.97;;;;;;;-1.52;62.49;101807.56;1726008;83;25514;-70
2022/03/14 00:26:22;;;;;;;27.10;13.97;;;;;;;-1.55;62.39;101804.80;1742375;81;25193;-71
2022/03/14 00:28:50;;;;;;;28.12;13.22;;;;;;;-1.59;62.87;101804.85;1741942;82;25944;-72
2022/03/14 00:31:17;;;;;;;28.60;14.23;;;;;;;-1.59;62.78;101804.85;1742316;82;25705;-72
2022/03/14 00:33:44;;;;;;;26.15;13.53;;;;;;;-1.60;62.90;101807.69;1742319;82;27298;-72
2022/03/14 00:36:10;;;;;;;25.97;12.85;;;;;;;-1.62;62.70;101805.74;1743095;82;25620;-72
2022/03/14 00:38:39;;;;;;;25.27;12.63;;;;;;;-1.64;62.90;101801.95;1740600;82;25296;-71
2022/03/14 00:41:08;;;;;;;29.45;12.85;;;;;;;-1.65;62.49;101804.79;1740222;82;25479;-71
2022/03/14 00:43:36;;;;;;;25.00;13.13;;;;;;;-1.65;63.00;101806.96;1739851;82;25298;-71
2022/03/14 00:46:03;;;;;;;22.93;12.07;;;;;;;-1.67;62.83;101804.98;1739982;82;27394;-71
2022/03/14 00:48:32;;;;;;;30.75;13.75;;;;;;;-1.70;62.76;101803.55;1738547;82;25384;-71
2022/03/14 00:50:57;;;;;;;26.93;13.90;;;;;;;-1.71;62.99;101805.87;1737656;82;26216;-71
2022/03/14 00:53:24;;;;;;;25.15;12.78;;;;;;;-1.73;63.15;101799.94;1737906;82;25908;-71
2022/03/14 00:55:50;;;;;;;25.00;12.25;;;;;;;-1.75;62.87;101799.83;1737782;82;25605;-71
2022/03/14 00:58:16;;;;;;;23.85;10.80;;;;;;;-1.76;62.81;101801.64;1737610;82;27325;-71
2022/03/14 01:00:43;;;;;;;26.77;14.03;;;;;;;-1.80;63.18;101792.42;1737781;82;25557;-71
2022/03/14 01:03:09;;;;;;;25.12;12.98;;;;;;;-1.81;63.10;101796.08;1737324;82;25700;-70
2022/03/14 01:05:36;;;;;;;25.97;13.28;;;;;;;-1.82;63.48;101795.78;1737220;82;26054;-70
2022/03/14 01:08:03;;;;;;;28.60;13.72;;;;;;;-1.83;63.21;101798.11;1738164;82;25605;-70
2022/03/14 01:10:30;;;;;;;27.95;13.00;;;;;;;-1.85;63.16;101795.34;1738141;82;27323;-71
2022/03/14 01:12:57;;;;;;;29.20;14.30;;;;;;;-1.88;63.19;101793.36;1737985;82;25770;-71
2022/03/14 01:15:23;;;;;;;28.90;14.63;;;;;;;-1.86;63.44;101792.36;1738168;82;26063;-71
2022/03/14 01:17:50;;;;;;;30.10;15.58;;;;;;;-1.87;63.45;101800.83;1738060;82;26016;-71
2022/03/14 01:20:16;;;;;;;27.87;14.78;;;;;;;-1.89;63.32;101801.02;1738154;82;25389;-71
2022/03/14 01:22:43;;;;;;;30.20;15.15;;;;;;;-1.90;63.54;101798.55;1738110;82;27308;-71
2022/03/14 01:25:10;;;;;;;28.75;15.85;;;;;;;-1.93;63.50;101805.55;1738006;82;25568;-71
2022/03/14 01:27:37;;;;;;;30.65;14.68;;;;;;;-1.96;63.38;101800.63;1738107;82;25544;-71
2022/03/14 01:30:05;;;;;;;29.98;14.35;;;;;;;-1.99;63.63;101803.16;1738090;82;26409;-71
2022/03/14 01:32:31;;;;;;;28.23;15.25;;;;;;;-2.00;63.74;101804.67;1738119;82;25558;-71
2022/03/14 01:34:57;;;;;;;31.00;14.80;;;;;;;-2.02;63.97;101806.70;1738119;82;27353;-72
2022/03/14 01:37:24;;;;;;;33.60;15.72;;;;;;;-2.05;63.72;101801.25;1738204;82;25428;-72
2022/03/14 01:39:50;;;;;;;32.88;16.60;;;;;;;-2.06;63.84;101798.27;1742368;82;25544;-72
2022/03/14 01:42:19;;;;;;;26.25;13.88;;;;;;;-2.04;63.87;101802.91;1742382;82;25880;-72
2022/03/14 01:44:47;;;;;;;24.98;13.28;;;;;;;-2.06;63.84;101802.25;1742355;82;25549;-72
2022/03/14 01:47:18;;;;;;;25.88;14.30;;;;;;;-2.11;64.03;101794.88;1742349;82;27360;-72
2022/03/14 01:49:46;;;;;;;28.67;15.08;;;;;;;-2.10;64.20;101801.80;1742210;82;25612;-72
2022/03/14 01:52:13;;;;;;;28.07;14.63;;;;;;;-2.12;64.12;101802.50;1742325;81;25569;-72
2022/03/14 01:54:41;;;;;;;32.60;15.13;;;;;;;-2.13;64.20;101800.88;1742274;82;26791;-72
2022/03/14 01:57:08;;;;;;;33.08;14.87;;;;;;;-2.15;64.13;101801.55;1742332;82;25621;-72
2022/03/14 01:59:36;;;;;;;28.15;15.32;;;;;;;-2.14;64.09;101802.39;1742311;82;27421;-71
2022/03/14 02:02:04;;;;;;;29.60;15.45;;;;;;;-2.17;64.25;101805.41;1742256;82;25406;-71
2022/03/14 02:04:31;;;;;;;30.85;13.70;;;;;;;-2.19;64.30;101808.24;1742282;82;25393;-71
2022/03/14 02:06:58;;;;;;;31.12;15.10;;;;;;;-2.22;64.55;101804.63;1742293;82;26482;-71
2022/03/14 02:09:25;;;;;;;30.37;15.80;;;;;;;-2.23;64.72;101808.80;1742354;82;25426;-73
2022/03/14 02:12:00;;;;;;;33.15;15.85;;;;;;;-2.25;64.74;101810.30;1742339;82;27956;-71
2022/03/14 02:14:26;;;;;;;35.95;17.05;;;;;;;-2.27;64.43;101811.81;1742317;82;25526;-71
2022/03/14 02:16:53;;;;;;;30.60;15.72;;;;;;;-2.29;64.76;101815.16;1721527;82;25426;-71
2022/03/14 02:19:20;;;;;;;33.92;17.20;;;;;;;-2.29;64.48;101817.81;1742346;82;26481;-71
2022/03/14 02:21:50;;;;;;;28.95;14.65;;;;;;;-2.31;64.39;101819.02;1742401;82;25367;-71
2022/03/14 02:24:16;;;;;;;28.17;15.45;;;;;;;-2.32;64.59;101823.48;1742437;81;27957;-71
2022/03/14 02:26:42;;;;;;;27.05;15.23;;;;;;;-2.32;64.36;101823.48;1742232;82;25516;-71
2022/03/14 02:29:10;;;;;;;35.60;17.42;;;;;;;-2.34;64.49;101826.82;1721440;82;25604;-71
2022/03/14 02:31:37;;;;;;;30.52;15.72;;;;;;;-2.35;64.50;101823.03;1742299;82;25935;-71
2022/03/14 02:34:07;;;;;;;25.43;14.33;;;;;;;-2.37;64.77;101831.67;1742422;81;25388;-71
2022/03/14 02:36:39;;;;;;;33.67;15.10;;;;;;;-2.40;64.85;101831.56;1742335;82;27389;-71
2022/03/14 02:39:07;;;;;;;28.12;14.80;;;;;;;-2.39;65.02;101827.07;1745783;82;25398;-71
2022/03/14 02:41:36;;;;;;;25.50;13.22;;;;;;;-2.41;65.24;101819.81;1747551;82;25563;-71
2022/03/14 02:44:06;;;;;;;33.15;15.98;;;;;;;-2.42;65.33;101832.22;1720398;82;25916;-71
2022/03/14 02:46:34;;;;;;;29.18;15.68;;;;;;;-2.42;65.17;101830.08;1747776;82;25607;-71
2022/03/14 02:49:01;;;;;;;29.12;16.27;;;;;;;-2.43;65.52;101833.25;1747830;82;27404;-71
2022/03/14 02:51:28;;;;;;;34.03;16.32;;;;;;;-2.42;65.43;101838.84;1747771;82;25529;-71
2022/03/14 02:53:55;;;;;;;32.38;16.12;;;;;;;-2.45;65.45;101833.42;1747868;82;25418;-71
2022/03/14 02:56:21;;;;;;;36.25;16.90;;;;;;;-2.46;65.49;101837.07;1747824;82;25977;-71
2022/03/14 02:58:52;;;;;;;29.30;15.18;;;;;;;-2.48;66.05;101836.95;1747865;82;25439;-71
2022/03/14 03:01:16;;;;;;;32.58;17.65;;;;;;;-2.52;65.64;101831.20;1747509;82;27296;-71
2022/03/14 03:03:42;;;;;;;37.03;16.70;;;;;;;-2.50;65.74;101831.02;1747774;82;25621;-71
2022/03/14 03:06:10;;;;;;;33.80;17.12;;;;;;;-2.51;65.46;101842.10;1747838;82;25583;-71
2022/03/14 03:08:36;;;;;;;28.75;14.68;;;;;;;-2.52;65.93;101835.17;1747807;82;26011;-71
2022/03/14 03:11:04;;;;;;;30.48;15.13;;;;;;;-2.54;65.76;101831.05;1747899;82;25618;-72
2022/03/14 03:13:34;;;;;;;31.25;15.90;;;;;;;-2.56;65.98;101835.72;1747873;82;27306;-72
2022/03/14 03:15:58;;;;;;;29.37;15.70;;;;;;;-2.56;66.30;101840.51;1747441;81;25589;-72
2022/03/14 03:18:25;;;;;;;27.07;13.53;;;;;;;-2.57;66.43;101838.88;1747953;82;25404;-71
2022/03/14 03:20:52;;;;;;;28.38;16.02;;;;;;;-2.56;66.33;101835.72;1747843;82;25961;-71
2022/03/14 03:23:19;;;;;;;30.77;15.58;;;;;;;-2.56;66.47;101841.02;1747862;82;25435;-71
2022/03/14 03:25:45;;;;;;;29.80;16.48;;;;;;;-2.56;66.63;101839.69;1747822;82;27298;-71
2022/03/14 03:28:11;;;;;;;35.03;17.17;;;;;;;-2.57;66.44;101843.34;1747878;82;25622;-71
2022/03/14 03:30:38;;;;;;;30.92;15.58;;;;;;;-2.58;66.39;101845.69;1747998;82;25538;-71
2022/03/14 03:33:05;;;;;;;32.90;16.82;;;;;;;-2.63;66.11;101848.36;1747953;82;25633;-71
2022/03/14 03:35:31;;;;;;;34.45;16.23;;;;;;;-2.64;66.62;101848.55;1748007;82;25549;-72
2022/03/14 03:37:58;;;;;;;32.10;15.25;;;;;;;-2.66;66.33;101856.67;1747876;82;27356;-72
2022/03/14 03:40:25;;;;;;;29.05;13.85;;;;;;;-2.66;66.63;101861.16;1747915;82;25571;-71
2022/03/14 03:42:51;;;;;;;31.27;14.38;;;;;;;-2.67;67.03;101852.39;1747990;82;25657;-71
2022/03/14 03:45:18;;;;;;;29.80;14.85;;;;;;;-2.66;66.77;101843.42;1720652;82;26527;-71
2022/03/14 03:47:45;;;;;;;27.75;13.38;;;;;;;-2.68;67.90;101844.63;1748016;82;25391;-72
2022/03/14 03:50:11;;;;;;;26.50;14.75;;;;;;;-2.69;67.09;101858.38;1747952;82;27364;-71
2022/03/14 03:52:38;;;;;;;29.25;13.75;;;;;;;-2.70;67.08;101852.75;1747883;82;25371;-71
2022/03/14 03:55:05;;;;;;;25.30;13.00;;;;;;;-2.71;67.00;101855.07;1747984;82;25547;-71
2022/03/14 03:57:34;;;;;;;28.27;15.58;;;;;;;-2.73;66.86;101853.63;1747946;82;26580;-72
2022/03/14 04:00:00;;;;;;;28.55;14.10;;;;;;;-2.74;67.54;101858.11;1747964;82;25435;-72
2022/03/14 04:02:27;;;;;;;28.32;15.50;;;;;;;-2.73;67.05;101865.55;1747991;82;27398;-72
2022/03/14 04:04:53;;;;;;;29.75;15.63;;;;;;;-2.75;67.20;101862.27;1747856;82;25449;-72
2022/03/14 04:07:23;;;;;;;27.07;14.13;;;;;;;-2.74;67.17;101862.08;1747987;82;25378;-72
2022/03/14 04:09:50;;;;;;;27.45;13.65;;;;;;;-2.75;67.12;101863.59;1747587;82;26459;-72
2022/03/14 04:12:16;;;;;;;31.73;14.98;;;;;;;-2.77;67.10;101865.09;1748011;82;25443;-72
2022/03/14 04:14:43;;;;;;;32.30;14.98;;;;;;;-2.78;67.13;101863.43;1747955;82;27428;-72
2022/03/14 04:17:09;;;;;;;27.65;14.18;;;;;;;-2.78;67.20;101866.59;1747838;82;25528;-72
2022/03/14 04:19:38;;;;;;;29.20;14.65;;;;;;;-2.78;68.12;101865.27;1747960;82;25402;-72
2022/03/14 04:22:04;;;;;;;28.38;13.45;;;;;;;-2.78;67.53;101867.92;1747809;82;25929;-72
2022/03/14 04:24:30;;;;;;;30.12;13.68;;;;;;;-2.79;67.41;101853.02;1747970;82;25406;-72
2022/03/14 04:26:57;;;;;;;36.25;15.48;;;;;;;-2.80;67.42;101857.50;1747916;82;27314;-72
2022/03/14 04:29:23;;;;;;;33.50;17.23;;;;;;;-2.82;67.19;101858.19;1747878;82;25712;-72
2022/03/14 04:31:49;;;;;;;29.37;14.40;;;;;;;-2.81;67.05;101867.76;1747970;82;25597;-72
2022/03/14 04:34:15;;;;;;;30.77;14.80;;;;;;;-2.84;67.11;101864.98;1747959;82;26445;-71
2022/03/14 04:36:42;;;;;;;24.12;13.08;;;;;;;-2.86;67.15;101865.68;1747987;82;25601;-71
2022/03/14 04:39:08;;;;;;;25.15;13.62;;;;;;;-2.87;67.16;101866.67;1747844;82;27371;-71
2022/03/14 04:41:37;;;;;;;32.98;15.78;;;;;;;-2.88;67.46;101872.98;1747833;82;25672;-71
2022/03/14 04:44:03;;;;;;;28.30;14.78;;;;;;;-2.87;67.28;101880.42;1747777;82;25677;-72
2022/03/14 04:46:29;;;;;;;27.73;14.47;;;;;;;-2.89;67.36;101883.25;1747857;82;26453;-72
2022/03/14 04:48:55;;;;;;;28.85;14.87;;;;;;;-2.90;67.29;101885.56;1747960;82;25666;-72
2022/03/14 04:51:22;;;;;;;32.20;16.30;;;;;;;-2.91;67.42;101888.39;1747923;82;27174;-72
2022/03/14 04:53:48;;;;;;;34.50;16.80;;;;;;;-2.93;67.23;101895.70;1747840;82;25375;-72
2022/03/14 04:56:15;;;;;;;38.15;16.90;;;;;;;-2.93;67.32;101895.70;1747966;82;25588;-72
2022/03/14 04:58:41;;;;;;;28.30;15.23;;;;;;;-2.94;67.24;101903.34;1747893;82;25917;-71
2022/03/14 05:01:07;;;;;;;32.23;14.90;;;;;;;-2.97;67.47;101899.20;1747950;82;25374;-71
2022/03/14 05:03:37;;;;;;;28.67;15.53;;;;;;;-2.98;67.38;101900.70;1747907;82;27367;-71
2022/03/14 05:06:03;;;;;;;28.07;14.07;;;;;;;-2.99;67.61;101906.52;1747935;81;33439;-72
2022/03/14 05:08:29;;;;;;;28.98;14.23;;;;;;;-2.99;67.44;101907.02;1747895;82;25437;-71
2022/03/14 05:10:57;;;;;;;35.13;17.20;;;;;;;-3.00;67.65;101904.85;1747841;82;26559;-71
2022/03/14 05:13:23;;;;;;;32.45;16.10;;;;;;;-2.99;67.71;101910.48;1747874;82;25389;-71
2022/03/14 05:15:49;;;;;;;30.40;16.45;;;;;;;-2.98;67.59;101917.41;1747871;82;27317;-71
2022/03/14 05:18:16;;;;;;;39.25;17.05;;;;;;;-2.98;67.75;101914.76;1746811;82;26236;-71
2022/03/14 05:20:42;;;;;;;31.10;16.45;;;;;;;-2.99;67.88;101913.13;1747088;81;25680;-71
2022/03/14 05:23:08;;;;;;;32.00;16.90;;;;;;;-2.99;68.18;101911.81;1747039;82;26029;-72
2022/03/14 05:25:35;;;;;;;35.88;18.30;;;;;;;-2.98;68.08;101909.47;1747100;82;25706;-72
2022/03/14 05:28:01;;;;;;;32.03;17.07;;;;;;;-2.96;68.24;101916.75;1747116;82;27313;-72
2022/03/14 05:30:28;;;;;;;36.10;17.45;;;;;;;-2.93;68.10;101924.31;1747024;82;25632;-72
2022/03/14 05:32:55;;;;;;;30.80;17.12;;;;;;;-2.88;68.28;101922.45;1747371;82;25540;-71
2022/03/14 05:35:21;;;;;;;37.03;18.23;;;;;;;-2.84;68.35;101926.41;1747856;82;25922;-71
2022/03/14 05:37:48;;;;;;;36.77;18.32;;;;;;;-2.82;68.48;101925.22;1720392;82;25450;-71
2022/03/14 05:40:20;;;;;;;34.45;18.48;;;;;;;-2.73;68.44;101927.80;1747807;82;27355;-71
2022/03/14 05:42:47;;;;;;;35.43;18.67;;;;;;;-2.67;68.49;101929.73;1747594;81;25308;-71
2022/03/14 05:45:16;;;;;;;43.00;20.90;;;;;;;-2.61;68.62;101932.96;1748040;82;25587;-71
2022/03/14 05:47:43;;;;;;;36.60;17.87;;;;;;;-2.52;68.73;101930.57;1748004;82;26390;-71
2022/03/14 05:50:11;;;;;;;31.82;16.87;;;;;;;-2.41;68.80;101933.77;1747998;82;25437;-71
2022/03/14 05:52:38;;;;;;;36.45;16.80;;;;;;;-2.33;68.78;101930.53;1747946;82;27325;-71
2022/03/14 05:55:06;;;;;;;34.95;17.07;;;;;;;-2.18;68.81;101934.98;1747824;82;25692;-71
2022/03/14 05:57:34;;;;;;;36.88;19.60;;;;;;;-2.04;68.80;101934.17;1747922;82;25482;-72
2022/03/14 06:00:06;;;;;;;52.30;24.23;;;;;;;-1.90;68.68;101935.15;1747862;82;26039;-72
2022/03/14 06:02:34;;;;;;;42.08;18.50;;;;;;;-1.75;68.64;101935.13;1747941;82;25615;-72
2022/03/14 06:05:01;;;;;;;38.50;21.10;;;;;;;-1.58;68.41;101927.25;1747897;82;27427;-70
2022/03/14 06:07:27;;;;;;;35.48;18.45;;;;;;;-1.40;68.02;101930.79;1747779;82;25491;-72
2022/03/14 06:09:54;;;;;;;33.13;17.17;;;;;;;-1.27;67.83;101930.11;1720595;82;25404;-72
2022/03/14 06:12:29;;;;;;;33.58;16.82;;;;;;;-1.10;67.76;101938.64;1747879;82;25932;-71
2022/03/14 06:14:59;;;;;;;35.58;19.70;;;;;;;-0.95;67.44;101926.10;1747957;82;25625;-72
2022/03/14 06:17:26;;;;;;;33.40;17.65;;;;;;;-0.75;67.17;101926.75;1748009;81;28027;-72
2022/03/14 06:19:53;;;;;;;40.40;17.98;;;;;;;-0.58;67.01;101929.94;1747763;82;25853;-72
2022/03/14 06:22:22;;;;;;;35.10;18.75;;;;;;;-0.37;66.71;101931.72;1747879;82;25364;-72
2022/03/14 06:24:50;;;;;;;31.60;16.50;;;;;;;-0.21;66.68;101930.05;1747978;82;26028;-72
2022/03/14 06:27:20;;;;;;;30.43;16.02;;;;;;;0.02;65.66;101925.45;1747837;82;25419;-72
2022/03/14 06:29:47;;;;;;;33.13;16.00;;;;;;;0.23;65.57;101934.64;1747895;82;27385;-72
2022/03/14 06:32:13;;;;;;;29.70;13.85;;;;;;;0.48;65.31;101925.61;1747772;82;25693;-72
2022/03/14 06:34:42;;;;;;;29.48;14.28;;;;;;;0.69;63.80;101929.13;1747860;82;25471;-72
2022/03/14 06:37:09;;;;;;;28.65;14.85;;;;;;;0.84;63.62;101915.63;1747945;82;26037;-72
2022/03/14 06:39:37;;;;;;;22.90;13.88;;;;;;;1.02;63.23;101921.66;1744295;81;25867;-73
2022/03/14 06:42:08;;;;;;;31.02;14.78;;;;;;;1.29;63.40;101922.47;1738088;82;27349;-73
2022/03/14 06:44:39;;;;;;;28.07;14.28;;;;;;;1.58;63.22;101931.05;1738031;82;25628;-73
2022/03/14 06:47:09;;;;;;;25.60;14.58;;;;;;;1.85;62.37;101931.80;1738012;82;25506;-73
2022/03/14 06:49:37;;;;;;;31.17;14.35;;;;;;;2.08;61.87;101929.98;1737815;82;25935;-73
2022/03/14 06:52:04;;;;;;;27.73;14.85;;;;;;;2.30;60.79;101930.98;1738099;82;25400;-72
2022/03/14 06:54:31;;;;;;;28.65;15.35;;;;;;;2.50;60.30;101933.56;1738090;82;27512;-72
2022/03/14 06:56:58;;;;;;;29.20;16.27;;;;;;;2.86;60.36;101940.94;1737987;82;25453;-72
2022/03/14 06:59:24;;;;;;;29.52;15.43;;;;;;;3.06;59.18;101937.28;1738098;82;25602;-72
2022/03/14 07:01:51;;;;;;;29.80;16.40;;;;;;;3.27;58.86;101934.23;1712832;82;26030;-72
2022/03/14 07:04:17;;;;;;;30.23;15.23;;;;;;;3.55;57.68;101943.62;1738246;82;25475;-72
2022/03/14 07:06:45;;;;;;;26.52;15.80;;;;;;;3.81;58.22;101937.70;1738182;82;27470;-72
2022/03/14 07:09:12;;;;;;;31.95;16.07;;;;;;;3.95;55.90;101943.71;1738132;82;25619;-73
2022/03/14 07:11:38;;;;;;;24.90;15.93;;;;;;;3.99;55.66;101940.91;1738238;82;25594;-71
2022/03/14 07:14:05;;;;;;;27.67;16.40;;;;;;;4.26;56.58;101950.23;1738184;82;25919;-71
2022/03/14 07:16:32;;;;;;;27.70;15.88;;;;;;;4.68;56.90;101951.63;1738226;82;25454;-70
2022/03/14 07:18:58;;;;;;;29.85;16.80;;;;;;;5.10;55.61;101948.62;1738238;82;27323;-71
2022/03/14 07:21:28;;;;;;;31.00;16.87;;;;;;;5.44;55.30;101944.31;1738151;82;25605;-71
2022/03/14 07:23:54;;;;;;;31.95;15.95;;;;;;;5.89;55.75;101952.25;1738004;82;25397;-71
2022/03/14 07:26:20;;;;;;;28.52;16.10;;;;;;;6.23;53.56;101943.02;1738139;82;25992;-71
2022/03/14 07:28:48;;;;;;;26.70;16.67;;;;;;;6.53;52.51;101948.17;1738217;82;25471;-71
2022/03/14 07:31:22;;;;;;;30.72;17.12;;;;;;;6.64;51.51;101954.03;1738206;82;27387;-72
2022/03/14 07:33:49;;;;;;;26.30;15.58;;;;;;;6.82;50.75;101957.02;1738121;82;25488;-71
2022/03/14 07:36:16;;;;;;;34.90;16.75;;;;;;;6.99;50.01;101954.88;1738206;82;25606;-71
2022/03/14 07:38:42;;;;;;;26.27;16.25;;;;;;;7.16;49.93;101943.58;1738161;82;26007;-71
2022/03/14 07:41:08;;;;;;;25.15;14.87;;;;;;;7.59;50.57;101950.12;1738187;82;25434;-72
2022/03/14 07:43:35;;;;;;;28.83;14.95;;;;;;;8.09;49.78;101952.40;1738193;82;27928;-71
2022/03/14 07:46:02;;;;;;;27.20;16.50;;;;;;;8.34;48.91;101957.27;1737997;82;25835;-71
2022/03/14 07:48:30;;;;;;;29.20;16.97;;;;;;;8.81;48.21;101961.80;1738180;82;25447;-71
2022/03/14 07:50:57;;;;;;;27.42;17.57;;;;;;;9.03;46.45;101961.72;1738151;82;26528;-71
2022/03/14 07:53:23;;;;;;;27.73;16.35;;;;;;;9.47;46.22;101961.50;1738229;82;25463;-71
2022/03/14 07:55:50;;;;;;;29.15;17.85;;;;;;;10.13;44.58;101961.54;1738158;82;27491;-72
2022/03/14 07:58:16;;;;;;;29.45;18.67;;;;;;;10.56;42.05;101958.19;1738095;82;25639;-71
2022/03/14 08:00:43;;;;;;;30.48;19.00;;;;;;;10.94;41.89;101970.94;1738185;82;25606;-71
2022/03/14 08:03:09;;;;;;;26.95;16.62;;;;;;;11.36;41.82;101961.72;1738147;82;26022;-71
2022/03/14 08:05:37;;;;;;;25.75;16.40;;;;;;;12.05;41.32;101964.79;1738181;82;25451;-71
2022/03/14 08:08:05;;;;;;;27.40;16.55;;;;;;;12.62;40.87;101955.25;1738122;82;27356;-71
2022/03/14 08:10:31;;;;;;;28.23;17.32;;;;;;;13.29;39.83;101960.69;1738131;82;25656;-72
2022/03/14 08:12:58;;;;;;;24.52;16.42;;;;;;;13.62;38.78;101951.67;1738188;82;25604;-73
2022/03/14 08:15:28;;;;;;;30.52;17.05;;;;;;;14.08;37.70;101951.67;1738237;82;25724;-71
2022/03/14 08:18:03;;;;;;;23.92;16.35;;;;;;;13.95;36.59;101945.58;1738253;82;25477;-72
2022/03/14 08:20:31;;;;;;;28.50;17.87;;;;;;;14.03;34.99;101945.47;1738358;82;27380;-72
2022/03/14 08:23:03;;;;;;;31.42;17.48;;;;;;;13.67;35.62;101945.34;1738057;82;25688;-72
2022/03/14 08:25:31;;;;;;;26.95;17.65;;;;;;;13.52;36.48;101948.23;1738248;82;25373;-72
2022/03/14 08:27:58;;;;;;;24.02;17.07;;;;;;;13.41;34.66;101945.63;1738136;82;26641;-71
2022/03/14 08:30:26;;;;;;;32.48;17.75;;;;;;;13.26;36.09;101949.83;1738186;82;25621;-72
2022/03/14 08:32:56;;;;;;;25.50;17.60;;;;;;;13.19;35.68;101953.44;1738184;82;27365;-72
2022/03/14 08:35:23;;;;;;;29.65;17.25;;;;;;;13.17;34.82;101943.41;1738140;82;25444;-71
2022/03/14 08:37:52;;;;;;;29.80;18.02;;;;;;;12.99;35.44;101947.10;1738195;82;25547;-71
2022/03/14 08:40:22;;;;;;;28.67;17.85;;;;;;;13.19;35.87;101943.38;1738180;82;25932;-72
2022/03/14 08:42:51;;;;;;;38.70;21.07;;;;;;;13.69;36.59;101947.25;1738146;82;25417;-72
2022/03/14 08:45:19;;;;;;;27.30;17.10;;;;;;;14.33;35.94;101945.05;1738252;82;27934;-72
2022/03/14 08:47:46;;;;;;;25.10;18.02;;;;;;;14.27;34.72;101944.89;1713079;82;25483;-72
2022/03/14 08:50:15;;;;;;;31.45;18.25;;;;;;;14.43;33.45;101943.30;1738103;82;25640;-72
2022/03/14 08:52:43;;;;;;;33.25;19.23;;;;;;;14.64;34.64;101937.84;1738103;82;25935;-72
2022/03/14 08:55:10;;;;;;;25.60;17.90;;;;;;;15.20;34.43;101938.80;1738574;82;25609;-72
2022/03/14 08:57:36;;;;;;;31.37;16.70;;;;;;;15.61;33.53;101940.78;1738352;82;27945;-73
2022/03/14 09:00:04;;;;;;;29.35;19.48;;;;;;;15.81;32.90;101933.31;1713099;82;25651;-73
2022/03/14 09:02:31;;;;;;;48.38;43.70;;;;;;;16.27;33.27;101935.05;1738202;82;25570;-72
2022/03/14 09:04:57;;;;;;;28.85;19.30;;;;;;;16.85;32.43;101936.73;1738283;82;25916;-73
2022/03/14 09:07:29;;;;;;;29.40;19.50;;;;;;;16.78;30.17;101940.67;1738596;82;25215;-72
2022/03/14 09:10:07;;;;;;;28.12;19.25;;;;;;;16.19;29.30;101943.96;1738111;82;27298;-71
2022/03/14 09:12:37;;;;;;;26.48;18.35;;;;;;;15.70;30.06;101935.42;1738057;82;25373;-71
2022/03/14 09:15:07;;;;;;;28.17;18.32;;;;;;;15.79;30.96;101942.37;1736740;82;25648;-72
2022/03/14 09:17:34;;;;;;;28.47;17.55;;;;;;;16.03;31.05;101933.38;1737938;82;25948;-72
2022/03/14 09:20:03;;;;;;;26.12;18.42;;;;;;;16.33;30.02;101921.55;1737880;82;25566;-72
2022/03/14 09:22:29;;;;;;;26.17;17.82;;;;;;;16.40;29.62;101923.85;1712483;82;27400;-72
2022/03/14 09:24:56;;;;;;;27.82;18.07;;;;;;;16.43;30.06;101925.97;1737775;82;25617;-72
2022/03/14 09:27:23;;;;;;;33.28;21.57;;;;;;;16.72;29.43;101922.80;1737771;82;25596;-72
2022/03/14 09:29:51;;;;;;;28.02;17.90;;;;;;;16.67;29.75;101919.38;1737806;82;25946;-72
2022/03/14 09:32:20;;;;;;;25.62;17.82;;;;;;;16.97;29.65;101921.39;1738205;82;25685;-72
2022/03/14 09:34:46;;;;;;;26.47;17.03;;;;;;;17.05;28.89;101919.81;1738488;82;27884;-72
2022/03/14 09:37:12;;;;;;;25.70;17.05;;;;;;;17.22;29.44;101922.41;1737637;82;25602;-71
2022/03/14 09:39:39;;;;;;;23.95;17.57;;;;;;;17.34;28.72;101922.61;1737935;82;25665;-71
2022/03/14 09:42:10;;;;;;;25.95;17.82;;;;;;;17.45;28.19;101928.06;1741949;82;26545;-71
2022/03/14 09:44:41;;;;;;;29.18;19.40;;;;;;;17.22;27.85;101915.56;1741878;82;25388;-71
2022/03/14 09:47:11;;;;;;;23.27;17.02;;;;;;;17.39;28.77;101918.94;1741932;82;27351;-72
2022/03/14 09:49:40;;;;;;;29.55;18.73;;;;;;;17.89;27.51;101907.67;1741936;82;25587;-71
2022/03/14 09:52:07;;;;;;;25.62;18.23;;;;;;;17.91;27.64;101914.45;1720725;82;25458;-71
2022/03/14 09:54:35;;;;;;;28.83;18.87;;;;;;;18.13;27.83;101901.73;1742012;82;26972;-71
2022/03/14 09:57:01;;;;;;;27.90;18.20;;;;;;;18.71;26.54;101903.74;1741964;81;25682;-71
2022/03/14 09:59:29;;;;;;;28.32;17.92;;;;;;;18.99;26.23;101908.86;1741858;82;27859;-71
2022/03/14 10:01:56;;;;;;;22.87;15.90;;;;;;;18.98;24.63;101907.23;1721008;82;25662;-70
2022/03/14 10:04:22;;;;;;;29.72;19.05;;;;;;;19.31;25.61;101903.92;1742026;82;25408;-70
2022/03/14 10:06:49;;;;;;;25.80;17.65;;;;;;;19.49;24.51;101895.81;1720949;82;28066;-70
2022/03/14 10:09:16;;;;;;;26.20;18.48;;;;;;;19.54;24.12;101905.81;1742029;82;25880;-72
2022/03/14 10:11:43;;;;;;;24.65;16.55;;;;;;;19.77;25.17;101898.92;1742042;81;27320;-71
2022/03/14 10:14:19;;;;;;;27.27;16.60;;;;;;;20.75;25.35;101897.02;1741728;82;25723;-71
2022/03/14 10:16:40;;;;;;;27.42;18.10;;;;;;;21.63;24.51;101903.88;1741116;82;25747;-71
2022/03/14 10:19:13;;;;;;;23.90;17.48;;;;;;;22.31;23.85;101891.95;1742042;82;25923;-71
2022/03/14 10:21:38;;;;;;;24.40;17.32;;;;;;;22.80;23.35;101911.56;1741080;82;25727;-71
2022/03/14 10:24:11;;;;;;;25.35;17.87;;;;;;;23.10;22.75;101901.77;1741992;82;27394;-71
2022/03/14 10:26:44;;;;;;;25.12;17.87;;;;;;;23.08;21.76;101901.89;1741903;82;25601;-71
2022/03/14 10:29:14;;;;;;;23.73;17.17;;;;;;;22.83;21.14;101901.20;1741837;82;25617;-71
2022/03/14 10:31:49;;;;;;;24.70;17.40;;;;;;;23.17;22.62;101903.09;1741989;82;25941;-71
2022/03/14 10:34:18;;;;;;;22.35;16.37;;;;;;;23.81;22.04;101899.09;1740859;82;25422;-72
2022/03/14 10:36:54;;;;;;;23.87;17.23;;;;;;;24.06;21.70;101900.23;1697080;82;27411;-72
2022/03/14 10:39:28;;;;;;;23.87;16.37;;;;;;;24.07;19.57;101904.58;1742131;82;25630;-71
2022/03/14 10:42:05;;;;;;;23.65;17.10;;;;;;;23.91;20.06;101897.73;1738798;81;25546;-72
2022/03/14 10:44:33;;;;;;;23.27;17.65;;;;;;;23.68;20.47;101891.50;1737796;82;25973;-71
2022/03/14 10:47:02;;;;;;;23.55;16.25;;;;;;;23.70;20.67;101888.38;1737895;82;25403;-72
2022/03/14 10:49:32;;;;;;;21.62;16.20;;;;;;;24.16;20.84;101898.27;1738093;82;27328;-72
2022/03/14 10:52:03;;;;;;;19.77;15.88;;;;;;;24.10;19.49;101895.56;1737548;82;25547;-72
2022/03/14 10:54:30;;;;;;;23.87;17.20;;;;;;;24.21;20.40;101889.69;1738002;82;25625;-73
2022/03/14 10:57:24;;;;;;;25.48;15.85;;;;;;;24.73;19.77;101887.53;1712596;82;25993;-70
2022/03/14 10:59:53;;;;;;;21.90;16.93;;;;;;;24.76;19.88;101890.16;1737983;82;25654;-72
2022/03/14 11:02:28;;;;;;;25.77;17.07;;;;;;;25.10;19.48;101884.80;1737825;82;27360;-72
2022/03/14 11:04:58;;;;;;;25.27;16.57;;;;;;;24.92;18.45;101882.52;1737651;82;25704;-71
2022/03/14 11:07:28;;;;;;;20.27;16.10;;;;;;;24.70;19.48;101882.72;1737816;82;25373;-72
2022/03/14 11:09:58;;;;;;;21.80;16.57;;;;;;;25.08;19.59;101877.43;1737936;82;26488;-71
2022/03/14 11:12:27;;;;;;;23.47;16.23;;;;;;;25.00;19.34;101882.66;1737779;82;25403;-71